Time;durP1;ratioP1;P1;durP2;ratioP2;P2;SDS_P1;SDS_P2;PMS_P1;PMS_P2;Temp;Humidity;BMP_temperature;BMP_pressure;BME280_temperature;BME280_humidity;BME280_pressure;Samples;Min_cycle;Max_cycle;Signal;HPM_P1;HPM_P2
2023/08/13 00:01:30;;;;;;;13.65;4.72;;;;;;;;;;5022766;28;20232;-72
2023/08/13 00:03:55;;;;;;;15.15;5.38;;;;;;;;;;5027981;28;20198;-72
2023/08/13 00:06:21;;;;;;;14.02;5.57;;;;;;;;;;5030223;28;20193;-72
2023/08/13 00:08:46;;;;;;;13.93;5.53;;;;;;;;;;5025578;28;20683;-72
2023/08/13 00:11:12;;;;;;;16.00;6.22;;;;;;;;;;5030428;28;20190;-72
2023/08/13 00:13:38;;;;;;;16.08;5.53;;;;;;;;;;5030589;28;20261;-72
2023/08/13 00:16:04;;;;;;;14.15;5.45;;;;;;;;;;5030412;28;20197;-72
2023/08/13 00:18:29;;;;;;;16.73;5.22;;;;;;;;;;5029513;28;20198;-72
2023/08/13 00:20:55;;;;;;;14.30;6.10;;;;;;;;;;5023994;28;20189;-72
2023/08/13 00:23:20;;;;;;;14.55;5.72;;;;;;;;;;5016010;28;20214;-71
2023/08/13 00:25:46;;;;;;;13.32;5.90;;;;;;;;;;5023137;28;20205;-72
2023/08/13 00:28:11;;;;;;;14.57;6.05;;;;;;;;;;5030264;28;20813;-72
2023/08/13 00:30:36;;;;;;;20.45;5.88;;;;;;;;;;5036405;28;20193;-71
2023/08/13 00:33:02;;;;;;;12.30;5.50;;;;;;;;;;5031089;28;20194;-71
2023/08/13 00:35:27;;;;;;;17.20;5.50;;;;;;;;;;5039066;28;20793;-71
2023/08/13 00:37:53;;;;;;;14.73;5.57;;;;;;;;;;5009556;28;20178;-71
2023/08/13 00:40:18;;;;;;;12.73;4.75;;;;;;;;;;5028756;28;20193;-72
2023/08/13 00:42:44;;;;;;;12.38;5.03;;;;;;;;;;5027659;28;20320;-72
2023/08/13 00:45:09;;;;;;;10.65;4.55;;;;;;;;;;5017057;28;20339;-72
2023/08/13 00:47:36;;;;;;;13.73;4.93;;;;;;;;;;5035170;28;20293;-72
2023/08/13 00:50:04;;;;;;;10.55;4.00;;;;;;;;;;5019690;28;20308;-72
2023/08/13 00:52:29;;;;;;;13.15;4.43;;;;;;;;;;5030497;28;20606;-71
2023/08/13 00:54:55;;;;;;;7.85;4.32;;;;;;;;;;5017274;28;20187;-72
2023/08/13 00:57:20;;;;;;;9.45;3.40;;;;;;;;;;5028661;28;20521;-72
2023/08/13 00:59:47;;;;;;;16.70;4.18;;;;;;;;;;5021512;28;20202;-72
2023/08/13 01:02:12;;;;;;;12.23;4.47;;;;;;;;;;5024517;28;20261;-71
2023/08/13 01:04:38;;;;;;;13.20;3.72;;;;;;;;;;5029341;28;20693;-73
2023/08/13 01:07:11;;;;;;;10.95;3.78;;;;;;;;;;5030611;28;20186;-72
2023/08/13 01:10:14;;;;;;;12.13;3.88;;;;;;;;;;5019184;28;20211;-71
2023/08/13 01:12:48;;;;;;;11.73;3.72;;;;;;;;;;5011955;28;20333;-72
2023/08/13 01:15:18;;;;;;;13.13;4.30;;;;;;;;;;5030207;28;20220;-72
2023/08/13 01:17:47;;;;;;;11.75;3.83;;;;;;;;;;5024278;28;20756;-72
2023/08/13 01:20:14;;;;;;;11.48;3.88;;;;;;;;;;5021603;28;20186;-72
2023/08/13 01:22:46;;;;;;;11.15;3.53;;;;;;;;;;5021965;28;20201;-72
2023/08/13 01:25:12;;;;;;;10.25;3.45;;;;;;;;;;5029002;28;20529;-72
2023/08/13 01:27:50;;;;;;;10.18;3.50;;;;;;;;;;5029180;28;20255;-72
2023/08/13 01:30:28;;;;;;;7.53;3.05;;;;;;;;;;5028361;28;20267;-72
2023/08/13 01:33:01;;;;;;;12.52;3.45;;;;;;;;;;5033949;28;20217;-72
2023/08/13 01:35:27;;;;;;;10.20;3.35;;;;;;;;;;5025029;28;20221;-71
2023/08/13 01:37:54;;;;;;;8.93;3.20;;;;;;;;;;5030181;28;20193;-71
2023/08/13 01:40:20;;;;;;;12.50;3.55;;;;;;;;;;5021036;28;20182;-71
2023/08/13 01:42:45;;;;;;;11.63;3.63;;;;;;;;;;5017872;28;20241;-71
2023/08/13 01:45:11;;;;;;;11.52;2.83;;;;;;;;;;5025581;28;20213;-71
2023/08/13 01:47:36;;;;;;;11.23;3.20;;;;;;;;;;5029197;28;20287;-71
2023/08/13 01:50:02;;;;;;;13.80;4.15;;;;;;;;;;5024528;28;20198;-71
2023/08/13 01:52:27;;;;;;;10.20;3.10;;;;;;;;;;5028795;28;20198;-71
2023/08/13 01:54:53;;;;;;;11.63;2.85;;;;;;;;;;5018573;28;20198;-71
2023/08/13 01:57:18;;;;;;;8.93;2.92;;;;;;;;;;5035032;28;20332;-71
2023/08/13 01:59:43;;;;;;;11.38;3.10;;;;;;;;;;5030729;28;20530;-71
2023/08/13 02:02:09;;;;;;;15.43;3.10;;;;;;;;;;5031857;28;20182;-71
2023/08/13 02:04:34;;;;;;;12.88;3.28;;;;;;;;;;5026351;28;20187;-72
2023/08/13 02:06:59;;;;;;;13.50;3.25;;;;;;;;;;5030969;28;20544;-72
2023/08/13 02:09:25;;;;;;;12.75;3.20;;;;;;;;;;5016064;28;20340;-71
2023/08/13 02:11:50;;;;;;;8.18;3.05;;;;;;;;;;5029552;28;20193;-71
2023/08/13 02:14:15;;;;;;;15.45;3.28;;;;;;;;;;5034193;28;20328;-72
2023/08/13 02:16:41;;;;;;;13.57;2.75;;;;;;;;;;5026503;28;20332;-71
2023/08/13 02:19:06;;;;;;;10.70;2.55;;;;;;;;;;5034800;28;20200;-71
2023/08/13 02:21:31;;;;;;;6.88;2.33;;;;;;;;;;5023346;28;20213;-72
2023/08/13 02:23:57;;;;;;;13.73;3.17;;;;;;;;;;5035488;28;20186;-71
2023/08/13 02:26:22;;;;;;;11.63;3.33;;;;;;;;;;5034014;28;20494;-71
2023/08/13 02:28:48;;;;;;;10.77;2.65;;;;;;;;;;5035615;28;20256;-71
2023/08/13 02:31:13;;;;;;;16.65;2.78;;;;;;;;;;5041129;28;20193;-71
2023/08/13 02:33:38;;;;;;;8.82;2.70;;;;;;;;;;5027536;28;20194;-71
2023/08/13 02:36:04;;;;;;;12.27;3.08;;;;;;;;;;5021152;28;20282;-71
2023/08/13 02:38:29;;;;;;;12.07;3.17;;;;;;;;;;5035655;28;20182;-71
2023/08/13 02:40:55;;;;;;;14.65;3.08;;;;;;;;;;5037452;28;20332;-71
2023/08/13 02:43:20;;;;;;;11.32;3.03;;;;;;;;;;5033794;28;20755;-71
2023/08/13 02:45:45;;;;;;;14.65;3.20;;;;;;;;;;5034152;28;20263;-72
2023/08/13 02:48:11;;;;;;;13.25;2.83;;;;;;;;;;5031164;28;20820;-72
2023/08/13 02:50:36;;;;;;;10.00;2.97;;;;;;;;;;5035052;28;20208;-72
2023/08/13 02:53:01;;;;;;;10.07;3.47;;;;;;;;;;5033701;28;20200;-71
2023/08/13 02:55:27;;;;;;;10.52;3.30;;;;;;;;;;5030516;28;20201;-72
2023/08/13 02:57:52;;;;;;;13.15;3.70;;;;;;;;;;5034621;28;20178;-72
2023/08/13 03:00:18;;;;;;;13.35;3.72;;;;;;;;;;5032640;28;20659;-71
2023/08/13 03:02:43;;;;;;;11.18;3.88;;;;;;;;;;5028473;28;20313;-71
2023/08/13 03:05:09;;;;;;;12.65;4.30;;;;;;;;;;5023926;28;20215;-72
2023/08/13 03:07:35;;;;;;;14.02;4.32;;;;;;;;;;5032267;28;20206;-70
2023/08/13 03:10:00;;;;;;;16.58;4.55;;;;;;;;;;5028406;28;20230;-71
2023/08/13 03:12:26;;;;;;;9.82;3.22;;;;;;;;;;5027426;28;20636;-70
2023/08/13 03:14:51;;;;;;;10.00;3.47;;;;;;;;;;5019164;28;20672;-71
2023/08/13 03:17:16;;;;;;;15.30;3.95;;;;;;;;;;5030168;28;20213;-70
2023/08/13 03:19:42;;;;;;;10.45;3.80;;;;;;;;;;5030067;28;20317;-71
2023/08/13 03:22:08;;;;;;;13.95;4.18;;;;;;;;;;5024420;28;20221;-70
2023/08/13 03:24:34;;;;;;;15.70;4.15;;;;;;;;;;5032126;28;20261;-71
2023/08/13 03:26:59;;;;;;;12.15;3.63;;;;;;;;;;5010786;28;20194;-70
2023/08/13 03:29:25;;;;;;;13.80;4.32;;;;;;;;;;5030046;28;20365;-70
2023/08/13 03:31:50;;;;;;;13.18;4.22;;;;;;;;;;5036151;28;20199;-70
2023/08/13 03:34:16;;;;;;;9.68;3.95;;;;;;;;;;5024688;28;20190;-71
2023/08/13 03:36:41;;;;;;;9.55;4.38;;;;;;;;;;5021862;28;20307;-71
2023/08/13 03:39:06;;;;;;;13.80;3.90;;;;;;;;;;5032260;28;20197;-70
2023/08/13 03:41:32;;;;;;;9.88;4.32;;;;;;;;;;5032079;28;20194;-70
2023/08/13 03:43:57;;;;;;;14.85;4.65;;;;;;;;;;5032451;28;20230;-70
2023/08/13 03:46:22;;;;;;;13.70;4.07;;;;;;;;;;5012415;28;20266;-69
2023/08/13 03:48:48;;;;;;;12.85;4.03;;;;;;;;;;5028850;28;20214;-70
2023/08/13 03:51:13;;;;;;;12.05;3.85;;;;;;;;;;5029235;28;20603;-70
2023/08/13 03:53:38;;;;;;;13.70;3.80;;;;;;;;;;5031497;28;20194;-70
2023/08/13 03:56:07;;;;;;;12.48;3.83;;;;;;;;;;5019539;28;20595;-70
2023/08/13 03:58:34;;;;;;;12.30;4.28;;;;;;;;;;5028715;28;20205;-70
2023/08/13 04:01:06;;;;;;;11.18;4.65;;;;;;;;;;5021845;28;20225;-70
2023/08/13 04:03:32;;;;;;;11.55;4.20;;;;;;;;;;5028513;28;20182;-70
2023/08/13 04:05:57;;;;;;;14.63;4.15;;;;;;;;;;5029984;28;20212;-70
2023/08/13 04:08:22;;;;;;;14.05;3.65;;;;;;;;;;5030950;28;20210;-70
2023/08/13 04:10:49;;;;;;;10.18;4.03;;;;;;;;;;5012208;28;20190;-70
2023/08/13 04:13:15;;;;;;;9.50;3.58;;;;;;;;;;5029774;28;20190;-70
2023/08/13 04:15:40;;;;;;;14.23;4.28;;;;;;;;;;5026575;28;20256;-70
2023/08/13 04:18:06;;;;;;;9.60;3.70;;;;;;;;;;5030912;28;20209;-70
2023/08/13 04:20:32;;;;;;;10.45;3.92;;;;;;;;;;5018292;28;20551;-70
2023/08/13 04:22:57;;;;;;;17.35;4.07;;;;;;;;;;5028484;28;20561;-70
2023/08/13 04:25:23;;;;;;;12.45;4.00;;;;;;;;;;5025019;28;20202;-71
2023/08/13 04:27:48;;;;;;;9.90;3.50;;;;;;;;;;5027921;28;20202;-70
2023/08/13 04:30:13;;;;;;;10.43;3.42;;;;;;;;;;5031778;28;20190;-70
2023/08/13 04:32:39;;;;;;;13.27;3.75;;;;;;;;;;5025300;28;20542;-70
2023/08/13 04:35:05;;;;;;;10.80;3.65;;;;;;;;;;5029514;28;20194;-71
2023/08/13 04:37:31;;;;;;;12.70;3.88;;;;;;;;;;5017974;28;20210;-70
2023/08/13 04:39:57;;;;;;;9.02;4.40;;;;;;;;;;5028542;28;20186;-70
2023/08/13 04:42:22;;;;;;;19.83;4.38;;;;;;;;;;5010494;28;20292;-70
2023/08/13 04:44:48;;;;;;;15.02;4.45;;;;;;;;;;5019271;28;20194;-70
2023/08/13 04:47:13;;;;;;;12.82;4.10;;;;;;;;;;5010264;28;20199;-72
2023/08/13 04:49:39;;;;;;;11.70;4.18;;;;;;;;;;5023492;28;20336;-70
2023/08/13 04:52:04;;;;;;;11.75;4.20;;;;;;;;;;5022327;28;20316;-70
2023/08/13 04:54:30;;;;;;;10.07;3.83;;;;;;;;;;5030480;28;20645;-70
2023/08/13 04:56:55;;;;;;;15.00;4.07;;;;;;;;;;5020764;28;20282;-70
2023/08/13 04:59:20;;;;;;;14.02;4.03;;;;;;;;;;5029148;28;20265;-70
2023/08/13 05:01:46;;;;;;;16.75;4.28;;;;;;;;;;5020448;28;20202;-70
2023/08/13 05:04:12;;;;;;;13.20;3.50;;;;;;;;;;5029560;28;20664;-70
2023/08/13 05:06:37;;;;;;;14.77;4.03;;;;;;;;;;5024843;28;20665;-70
2023/08/13 05:09:03;;;;;;;17.73;3.75;;;;;;;;;;5030792;28;20209;-70
2023/08/13 05:11:28;;;;;;;13.23;3.75;;;;;;;;;;5026136;28;20193;-70
2023/08/13 05:13:54;;;;;;;10.15;3.63;;;;;;;;;;5024789;28;20608;-70
2023/08/13 05:16:19;;;;;;;14.90;3.80;;;;;;;;;;5029368;28;20186;-70
2023/08/13 05:18:45;;;;;;;20.83;4.38;;;;;;;;;;5030283;28;20217;-70
2023/08/13 05:21:10;;;;;;;10.45;3.45;;;;;;;;;;5028842;28;20533;-70
2023/08/13 05:23:35;;;;;;;15.77;3.90;;;;;;;;;;5020205;28;20260;-70
2023/08/13 05:26:01;;;;;;;7.35;3.03;;;;;;;;;;5022908;28;20586;-70
2023/08/13 05:28:26;;;;;;;12.00;3.63;;;;;;;;;;5031497;28;20305;-70
2023/08/13 05:30:52;;;;;;;10.15;3.63;;;;;;;;;;5042105;28;20190;-70
2023/08/13 05:33:17;;;;;;;14.68;3.63;;;;;;;;;;5014871;28;20189;-70
2023/08/13 05:35:42;;;;;;;12.38;3.67;;;;;;;;;;5029080;28;20594;-70
2023/08/13 05:38:08;;;;;;;16.92;3.88;;;;;;;;;;5025850;28;20182;-70
2023/08/13 05:40:33;;;;;;;11.20;3.55;;;;;;;;;;5030183;28;20673;-70
2023/08/13 05:42:59;;;;;;;17.73;3.97;;;;;;;;;;5029739;28;20233;-70
2023/08/13 05:45:24;;;;;;;12.60;3.65;;;;;;;;;;5030361;28;20197;-70
2023/08/13 05:47:50;;;;;;;13.30;3.78;;;;;;;;;;5028290;28;20225;-70
2023/08/13 05:50:15;;;;;;;15.95;4.00;;;;;;;;;;5028670;28;20187;-72
2023/08/13 05:52:41;;;;;;;15.25;3.55;;;;;;;;;;5024486;28;20719;-70
2023/08/13 05:55:07;;;;;;;10.98;3.17;;;;;;;;;;5010839;28;20186;-69
2023/08/13 05:57:32;;;;;;;12.60;3.10;;;;;;;;;;5029785;28;20186;-70
2023/08/13 05:59:59;;;;;;;12.82;3.45;;;;;;;;;;5029349;28;20256;-71
2023/08/13 06:02:24;;;;;;;17.27;3.83;;;;;;;;;;5029243;28;20197;-70
2023/08/13 06:04:50;;;;;;;13.48;3.38;;;;;;;;;;5026281;28;20186;-70
2023/08/13 06:07:15;;;;;;;15.15;3.38;;;;;;;;;;5028191;28;20190;-70
2023/08/13 06:09:41;;;;;;;13.75;3.13;;;;;;;;;;5028481;28;20309;-71
2023/08/13 06:12:07;;;;;;;15.07;3.55;;;;;;;;;;5027947;28;20280;-71
2023/08/13 06:14:32;;;;;;;10.73;2.85;;;;;;;;;;5029578;28;20248;-70
2023/08/13 06:16:57;;;;;;;13.55;3.38;;;;;;;;;;5020088;28;20222;-71
2023/08/13 06:19:23;;;;;;;9.55;3.38;;;;;;;;;;5027017;28;20197;-71
2023/08/13 06:21:48;;;;;;;13.75;2.90;;;;;;;;;;5023146;28;20198;-71
2023/08/13 06:24:13;;;;;;;13.55;3.40;;;;;;;;;;5028459;28;20268;-71
2023/08/13 06:26:39;;;;;;;13.48;3.55;;;;;;;;;;5022591;28;20217;-71
2023/08/13 06:29:04;;;;;;;10.77;3.53;;;;;;;;;;5022371;28;20217;-71
2023/08/13 06:31:30;;;;;;;17.23;4.38;;;;;;;;;;5032143;28;20269;-70
2023/08/13 06:33:55;;;;;;;11.90;3.22;;;;;;;;;;5019042;28;20259;-70
2023/08/13 06:36:20;;;;;;;12.68;3.03;;;;;;;;;;5029076;28;20265;-70
2023/08/13 06:38:46;;;;;;;11.55;3.20;;;;;;;;;;5033118;28;20201;-70
2023/08/13 06:41:11;;;;;;;12.30;3.50;;;;;;;;;;5032890;28;20193;-70
2023/08/13 06:43:36;;;;;;;20.00;3.55;;;;;;;;;;5033347;28;20225;-70
2023/08/13 06:46:02;;;;;;;16.20;3.30;;;;;;;;;;5031151;28;20251;-71
2023/08/13 06:48:32;;;;;;;10.55;3.13;;;;;;;;;;5032002;28;20327;-71
2023/08/13 06:50:58;;;;;;;10.10;2.92;;;;;;;;;;5031486;28;20225;-70
2023/08/13 06:53:24;;;;;;;13.25;3.40;;;;;;;;;;5030329;28;20344;-70
2023/08/13 06:55:49;;;;;;;9.15;2.95;;;;;;;;;;5032565;28;20681;-71
2023/08/13 06:58:16;;;;;;;11.18;2.95;;;;;;;;;;5031896;28;20190;-70
2023/08/13 07:00:41;;;;;;;12.00;2.90;;;;;;;;;;5032570;28;20197;-70
2023/08/13 07:03:11;;;;;;;13.63;3.15;;;;;;;;;;5029434;28;20203;-71
2023/08/13 07:05:37;;;;;;;9.30;2.72;;;;;;;;;;5018693;28;20186;-70
2023/08/13 07:08:04;;;;;;;11.85;2.97;;;;;;;;;;5028670;28;20573;-70
2023/08/13 07:10:30;;;;;;;10.80;2.60;;;;;;;;;;5030921;28;20211;-72
2023/08/13 07:12:56;;;;;;;16.30;3.47;;;;;;;;;;5023050;28;20796;-72
2023/08/13 07:15:21;;;;;;;8.75;2.75;;;;;;;;;;5027208;28;20217;-70
2023/08/13 07:17:46;;;;;;;9.10;2.45;;;;;;;;;;5029708;28;20210;-70
2023/08/13 07:20:14;;;;;;;11.18;2.72;;;;;;;;;;5032639;28;20602;-71
2023/08/13 07:22:41;;;;;;;6.05;2.42;;;;;;;;;;5025657;28;20226;-72
2023/08/13 07:25:08;;;;;;;7.78;2.83;;;;;;;;;;5032071;28;20697;-70
2023/08/13 07:27:34;;;;;;;9.52;2.40;;;;;;;;;;5031561;28;20296;-71
2023/08/13 07:30:00;;;;;;;11.63;2.20;;;;;;;;;;5033423;28;20284;-70
2023/08/13 07:32:26;;;;;;;9.60;2.75;;;;;;;;;;5038721;28;20654;-70
2023/08/13 07:34:52;;;;;;;7.43;2.10;;;;;;;;;;5031295;28;20676;-70
2023/08/13 07:37:17;;;;;;;12.98;2.33;;;;;;;;;;5027619;28;20297;-71
2023/08/13 07:39:42;;;;;;;6.60;2.75;;;;;;;;;;5031652;28;20653;-71
2023/08/13 07:42:08;;;;;;;10.25;2.25;;;;;;;;;;5024327;28;20191;-71
2023/08/13 07:44:35;;;;;;;7.63;1.98;;;;;;;;;;5027011;28;20217;-71
2023/08/13 07:47:00;;;;;;;9.82;2.22;;;;;;;;;;5027350;28;20244;-71
2023/08/13 07:49:26;;;;;;;9.00;2.38;;;;;;;;;;5022920;28;20655;-72
2023/08/13 07:51:52;;;;;;;6.25;1.75;;;;;;;;;;5026827;28;20201;-71
2023/08/13 07:54:19;;;;;;;7.88;1.75;;;;;;;;;;5022334;28;20189;-71
2023/08/13 07:56:45;;;;;;;6.68;1.67;;;;;;;;;;5028719;28;20190;-72
2023/08/13 07:59:10;;;;;;;6.57;1.55;;;;;;;;;;5019226;28;20887;-71
2023/08/13 08:01:36;;;;;;;6.88;1.77;;;;;;;;;;5029815;28;20219;-71
2023/08/13 08:04:02;;;;;;;5.00;1.40;;;;;;;;;;5024645;28;20260;-71
2023/08/13 08:06:28;;;;;;;5.80;1.25;;;;;;;;;;5029890;28;20502;-71
2023/08/13 08:08:53;;;;;;;9.45;2.20;;;;;;;;;;5031037;28;20497;-71
2023/08/13 08:11:19;;;;;;;6.05;1.77;;;;;;;;;;5029955;28;20195;-72
2023/08/13 08:13:44;;;;;;;7.47;1.48;;;;;;;;;;5016294;28;20195;-71
2023/08/13 08:16:09;;;;;;;7.63;1.92;;;;;;;;;;5030950;28;20516;-71
2023/08/13 08:18:35;;;;;;;7.93;1.65;;;;;;;;;;5031707;28;20331;-71
2023/08/13 08:21:00;;;;;;;9.10;1.65;;;;;;;;;;5030475;28;20582;-72
2023/08/13 08:23:26;;;;;;;5.65;1.35;;;;;;;;;;5031598;28;20190;-72
2023/08/13 08:25:51;;;;;;;5.72;1.63;;;;;;;;;;5031701;28;20186;-71
2023/08/13 08:28:16;;;;;;;3.15;1.20;;;;;;;;;;5023116;28;20221;-70
2023/08/13 08:30:42;;;;;;;4.05;1.20;;;;;;;;;;5031251;28;20632;-76
2023/08/13 08:33:07;;;;;;;5.78;1.42;;;;;;;;;;5024335;28;20278;-72
2023/08/13 08:35:33;;;;;;;6.30;1.40;;;;;;;;;;5031829;28;20239;-74
2023/08/13 08:37:59;;;;;;;6.32;1.15;;;;;;;;;;5030868;28;20196;-74
2023/08/13 08:40:25;;;;;;;4.45;1.10;;;;;;;;;;5006444;28;20183;-71
2023/08/13 08:42:51;;;;;;;5.53;1.30;;;;;;;;;;5022693;28;20234;-71
2023/08/13 08:45:19;;;;;;;6.32;1.65;;;;;;;;;;5031572;28;20679;-72
2023/08/13 08:47:44;;;;;;;4.60;1.35;;;;;;;;;;5023699;28;20229;-71
2023/08/13 08:50:12;;;;;;;6.18;1.40;;;;;;;;;;5029475;28;20209;-72
2023/08/13 08:52:39;;;;;;;3.17;1.20;;;;;;;;;;5031577;28;20281;-71
2023/08/13 08:55:05;;;;;;;7.18;1.70;;;;;;;;;;5029236;28;20554;-74
2023/08/13 08:57:30;;;;;;;5.07;1.30;;;;;;;;;;5025986;28;20689;-72
2023/08/13 08:59:56;;;;;;;6.90;1.35;;;;;;;;;;5024997;28;20213;-72
2023/08/13 09:02:21;;;;;;;3.83;1.33;;;;;;;;;;5031142;28;20194;-71
2023/08/13 09:04:46;;;;;;;6.20;1.83;;;;;;;;;;5031511;28;20723;-71
2023/08/13 09:07:12;;;;;;;5.85;1.17;;;;;;;;;;5029028;28;20185;-73
2023/08/13 09:09:37;;;;;;;4.45;1.10;;;;;;;;;;5022971;28;20222;-72
2023/08/13 09:12:04;;;;;;;8.95;1.55;;;;;;;;;;5027642;28;20194;-72
2023/08/13 09:14:30;;;;;;;4.13;1.58;;;;;;;;;;5035128;28;20225;-71
2023/08/13 09:16:56;;;;;;;4.32;1.08;;;;;;;;;;5030598;28;20230;-73
2023/08/13 09:19:25;;;;;;;5.80;1.58;;;;;;;;;;5010640;28;20193;-71
2023/08/13 09:21:52;;;;;;;4.30;1.10;;;;;;;;;;5029771;28;20794;-72
2023/08/13 09:24:18;;;;;;;5.15;1.42;;;;;;;;;;5030062;28;20206;-72
2023/08/13 09:26:44;;;;;;;6.20;1.45;;;;;;;;;;5029785;28;20193;-72
2023/08/13 09:29:10;;;;;;;3.63;1.50;;;;;;;;;;5018672;28;20680;-72
2023/08/13 09:31:36;;;;;;;6.55;1.48;;;;;;;;;;5035551;28;20182;-73
2023/08/13 09:34:02;;;;;;;5.68;1.70;;;;;;;;;;5025463;28;20217;-72
2023/08/13 09:36:28;;;;;;;6.40;1.38;;;;;;;;;;5029281;28;20294;-72
2023/08/13 09:38:53;;;;;;;8.40;1.98;;;;;;;;;;5029215;28;20241;-71
2023/08/13 09:41:20;;;;;;;5.80;1.75;;;;;;;;;;5028441;28;20186;-71
2023/08/13 09:43:47;;;;;;;8.95;2.25;;;;;;;;;;5025986;28;20348;-72
2023/08/13 09:46:19;;;;;;;7.38;2.10;;;;;;;;;;5028687;28;20193;-71
2023/08/13 09:48:46;;;;;;;10.43;2.22;;;;;;;;;;5024161;28;20221;-71
2023/08/13 09:51:13;;;;;;;6.93;1.80;;;;;;;;;;5028997;28;20551;-70
2023/08/13 09:53:44;;;;;;;9.13;2.17;;;;;;;;;;5028990;28;20189;-71
2023/08/13 09:56:10;;;;;;;8.93;2.08;;;;;;;;;;5029565;28;20238;-70
2023/08/13 09:58:36;;;;;;;7.38;1.73;;;;;;;;;;5022314;28;20521;-71
2023/08/13 10:01:02;;;;;;;7.50;1.80;;;;;;;;;;5030971;28;20207;-71
2023/08/13 10:03:29;;;;;;;9.18;2.15;;;;;;;;;;5025033;28;20199;-74
2023/08/13 10:05:55;;;;;;;10.57;2.00;;;;;;;;;;5022059;28;20195;-71
2023/08/13 10:08:21;;;;;;;7.63;2.10;;;;;;;;;;5023092;28;20205;-70
2023/08/13 10:10:48;;;;;;;4.90;2.03;;;;;;;;;;5033135;28;20190;-70
2023/08/13 10:13:14;;;;;;;5.05;1.83;;;;;;;;;;5034588;28;20277;-70
2023/08/13 10:15:40;;;;;;;5.97;1.85;;;;;;;;;;5033226;28;20276;-70
2023/08/13 10:18:05;;;;;;;8.80;2.00;;;;;;;;;;5034076;28;20197;-71
2023/08/13 10:20:31;;;;;;;8.90;2.17;;;;;;;;;;5033909;28;20186;-71
2023/08/13 10:22:56;;;;;;;7.32;1.80;;;;;;;;;;5028934;28;20187;-72
2023/08/13 10:25:27;;;;;;;6.15;2.00;;;;;;;;;;5023090;28;20209;-70
2023/08/13 10:27:53;;;;;;;7.57;2.08;;;;;;;;;;5032325;28;20273;-72
2023/08/13 10:30:19;;;;;;;5.75;1.80;;;;;;;;;;5028473;28;20235;-73
2023/08/13 10:32:53;;;;;;;6.78;2.10;;;;;;;;;;5037040;28;20197;-71
2023/08/13 10:35:28;;;;;;;7.15;1.83;;;;;;;;;;5023244;28;20569;-73
2023/08/13 10:37:59;;;;;;;8.90;2.25;;;;;;;;;;5027111;28;20182;-73
2023/08/13 10:40:25;;;;;;;9.05;2.10;;;;;;;;;;5033886;28;20236;-71
2023/08/13 10:42:52;;;;;;;7.22;2.10;;;;;;;;;;5014168;28;20222;-72
2023/08/13 10:45:23;;;;;;;7.18;2.08;;;;;;;;;;5032763;28;20197;-72
2023/08/13 10:47:55;;;;;;;6.00;1.52;;;;;;;;;;5033607;28;20582;-70
2023/08/13 10:50:29;;;;;;;13.75;2.55;;;;;;;;;;5018906;28;20569;-73
2023/08/13 10:53:04;;;;;;;7.20;1.80;;;;;;;;;;5030654;28;20570;-71
2023/08/13 10:55:32;;;;;;;8.80;1.75;;;;;;;;;;5019429;28;20697;-69
2023/08/13 10:57:59;;;;;;;9.05;2.05;;;;;;;;;;5028589;28;20277;-71
2023/08/13 11:00:26;;;;;;;3.28;1.60;;;;;;;;;;5031649;28;20266;-71
2023/08/13 11:03:00;;;;;;;10.55;2.20;;;;;;;;;;5029264;28;20229;-71
2023/08/13 11:05:27;;;;;;;3.88;1.40;;;;;;;;;;5026587;28;20178;-71
2023/08/13 11:07:52;;;;;;;10.98;2.30;;;;;;;;;;5036249;28;20214;-73
2023/08/13 11:10:19;;;;;;;8.45;2.17;;;;;;;;;;5029646;28;20231;-72
2023/08/13 11:12:48;;;;;;;7.90;2.22;;;;;;;;;;5032026;28;20309;-72
2023/08/13 11:15:14;;;;;;;6.70;1.75;;;;;;;;;;5024380;28;20574;-70
2023/08/13 11:17:46;;;;;;;5.82;1.58;;;;;;;;;;5031921;28;20267;-73
2023/08/13 11:20:18;;;;;;;8.73;2.33;;;;;;;;;;5020818;28;20199;-72
2023/08/13 11:22:43;;;;;;;5.65;2.00;;;;;;;;;;5027941;28;20210;-71
2023/08/13 11:25:10;;;;;;;10.15;2.15;;;;;;;;;;5030529;28;20226;-71
2023/08/13 11:27:35;;;;;;;6.82;2.22;;;;;;;;;;5026981;28;20245;-74
2023/08/13 11:30:01;;;;;;;7.50;2.42;;;;;;;;;;5034274;28;20225;-72
2023/08/13 11:32:26;;;;;;;9.07;2.20;;;;;;;;;;5037257;28;20193;-71
2023/08/13 11:34:52;;;;;;;7.38;1.85;;;;;;;;;;5031972;28;20506;-75
2023/08/13 11:37:17;;;;;;;9.30;1.88;;;;;;;;;;5032198;28;20186;-71
2023/08/13 11:39:43;;;;;;;9.38;1.88;;;;;;;;;;5028556;28;20178;-71
2023/08/13 11:42:09;;;;;;;5.35;1.60;;;;;;;;;;5032278;28;20637;-72
2023/08/13 11:44:35;;;;;;;7.15;2.00;;;;;;;;;;5030900;28;20194;-71
2023/08/13 11:47:04;;;;;;;8.88;1.98;;;;;;;;;;5032038;28;20190;-76
2023/08/13 11:49:30;;;;;;;7.18;1.77;;;;;;;;;;5019148;28;20724;-72
2023/08/13 11:51:57;;;;;;;5.57;1.73;;;;;;;;;;5031280;28;20304;-71
2023/08/13 11:54:22;;;;;;;6.97;1.95;;;;;;;;;;5020267;28;20292;-71
2023/08/13 11:56:50;;;;;;;7.80;1.60;;;;;;;;;;5028862;28;20583;-71
2023/08/13 11:59:21;;;;;;;6.38;2.15;;;;;;;;;;5026237;28;20570;-71
2023/08/13 12:01:51;;;;;;;8.35;1.83;;;;;;;;;;5030240;28;20190;-72
2023/08/13 12:04:16;;;;;;;5.95;1.92;;;;;;;;;;5029264;28;20289;-74
2023/08/13 12:06:44;;;;;;;6.93;1.90;;;;;;;;;;5025586;28;20264;-72
2023/08/13 12:09:09;;;;;;;4.70;1.45;;;;;;;;;;5031798;28;20680;-74
2023/08/13 12:11:35;;;;;;;9.38;1.95;;;;;;;;;;5009845;28;20178;-72
2023/08/13 12:14:05;;;;;;;7.13;1.98;;;;;;;;;;5024655;28;20261;-73
2023/08/13 12:16:30;;;;;;;7.82;1.60;;;;;;;;;;5031698;28;20182;-71
2023/08/13 12:18:57;;;;;;;6.70;2.00;;;;;;;;;;5024652;28;20712;-71
2023/08/13 12:21:22;;;;;;;8.63;1.77;;;;;;;;;;5030332;28;20186;-71
2023/08/13 12:23:48;;;;;;;8.98;2.28;;;;;;;;;;5014112;28;20668;-72
2023/08/13 12:26:13;;;;;;;7.43;2.08;;;;;;;;;;5032113;28;20193;-72
2023/08/13 12:28:39;;;;;;;6.97;1.80;;;;;;;;;;5027543;28;20628;-72
2023/08/13 12:31:04;;;;;;;10.23;2.00;;;;;;;;;;5024017;28;20186;-72
2023/08/13 12:33:29;;;;;;;8.05;2.40;;;;;;;;;;5027858;28;20524;-72
2023/08/13 12:35:55;;;;;;;11.68;2.30;;;;;;;;;;5024130;28;20194;-74
2023/08/13 12:38:21;;;;;;;9.20;1.88;;;;;;;;;;5009625;28;20261;-71
2023/08/13 12:40:46;;;;;;;7.95;2.03;;;;;;;;;;5022800;28;20324;-71
2023/08/13 12:43:12;;;;;;;7.53;1.98;;;;;;;;;;5029389;28;20646;-71
2023/08/13 12:45:37;;;;;;;6.07;1.88;;;;;;;;;;5021212;28;20198;-72
2023/08/13 12:48:03;;;;;;;10.00;2.58;;;;;;;;;;5029779;28;20218;-71
2023/08/13 12:50:28;;;;;;;6.28;2.20;;;;;;;;;;5030009;28;20202;-71
2023/08/13 12:52:54;;;;;;;5.65;1.95;;;;;;;;;;5029632;28;20347;-72
2023/08/13 12:55:19;;;;;;;5.70;2.20;;;;;;;;;;5025493;28;20192;-72
2023/08/13 12:57:44;;;;;;;7.25;1.90;;;;;;;;;;5029360;28;20622;-75
2023/08/13 13:00:10;;;;;;;6.38;2.03;;;;;;;;;;5024630;28;20308;-72
2023/08/13 13:02:36;;;;;;;13.27;2.20;;;;;;;;;;5028799;28;20558;-71
2023/08/13 13:05:02;;;;;;;8.20;1.98;;;;;;;;;;5029221;28;20204;-71
2023/08/13 13:07:28;;;;;;;5.68;1.60;;;;;;;;;;5029397;28;20639;-76
2023/08/13 13:09:53;;;;;;;6.85;1.88;;;;;;;;;;5030480;28;20390;-72
2023/08/13 13:12:19;;;;;;;9.23;2.13;;;;;;;;;;5027753;28;20214;-71
2023/08/13 13:14:45;;;;;;;8.05;1.92;;;;;;;;;;5030368;28;20271;-76
2023/08/13 13:17:10;;;;;;;6.97;1.92;;;;;;;;;;5028638;28;20661;-72
2023/08/13 13:19:37;;;;;;;8.23;2.00;;;;;;;;;;5028900;28;20186;-74
2023/08/13 13:22:02;;;;;;;5.53;1.85;;;;;;;;;;5025670;28;20652;-74
2023/08/13 13:24:28;;;;;;;8.27;2.00;;;;;;;;;;5023806;28;20199;-72
2023/08/13 13:26:54;;;;;;;10.70;2.80;;;;;;;;;;5018849;28;20201;-71
2023/08/13 13:29:19;;;;;;;4.38;1.98;;;;;;;;;;5024049;28;20285;-71
2023/08/13 13:31:44;;;;;;;6.45;1.83;;;;;;;;;;5030179;28;20634;-70
2023/08/13 13:34:10;;;;;;;6.78;2.25;;;;;;;;;;5026059;28;20194;-70
2023/08/13 13:36:35;;;;;;;5.47;1.80;;;;;;;;;;5027931;28;20182;-71
2023/08/13 13:39:01;;;;;;;7.20;1.90;;;;;;;;;;5009363;28;20680;-70
2023/08/13 13:41:26;;;;;;;8.32;2.15;;;;;;;;;;5027370;28;20186;-71
2023/08/13 13:43:52;;;;;;;8.30;2.05;;;;;;;;;;5021217;28;20233;-70
2023/08/13 13:46:17;;;;;;;9.80;1.92;;;;;;;;;;5024773;28;20817;-71
2023/08/13 13:48:43;;;;;;;7.47;1.88;;;;;;;;;;5029576;28;20289;-71
2023/08/13 13:51:08;;;;;;;5.07;2.03;;;;;;;;;;5014319;28;20313;-71
2023/08/13 13:53:33;;;;;;;8.63;1.70;;;;;;;;;;5028468;28;20190;-71
2023/08/13 13:55:59;;;;;;;6.15;1.75;;;;;;;;;;5025114;28;20229;-71
2023/08/13 13:58:24;;;;;;;5.68;1.80;;;;;;;;;;5016027;28;20188;-70
2023/08/13 14:00:50;;;;;;;9.10;2.28;;;;;;;;;;5021167;28;20279;-71
2023/08/13 14:03:17;;;;;;;10.65;2.30;;;;;;;;;;5029598;28;20190;-71
2023/08/13 14:05:42;;;;;;;7.03;1.73;;;;;;;;;;5014264;28;20229;-74
2023/08/13 14:08:08;;;;;;;5.57;1.80;;;;;;;;;;4992550;28;20230;-71
2023/08/13 14:10:33;;;;;;;5.32;1.90;;;;;;;;;;5020574;28;20186;-73
2023/08/13 14:12:59;;;;;;;8.50;2.30;;;;;;;;;;5030219;28;20292;-72
2023/08/13 14:15:24;;;;;;;12.57;2.35;;;;;;;;;;5027769;28;20201;-74
2023/08/13 14:17:49;;;;;;;7.88;2.33;;;;;;;;;;5028653;28;20634;-73
2023/08/13 14:20:15;;;;;;;7.43;2.00;;;;;;;;;;5019596;28;20191;-71
2023/08/13 14:22:40;;;;;;;5.63;1.67;;;;;;;;;;5016875;28;20552;-70
2023/08/13 14:25:06;;;;;;;7.78;1.98;;;;;;;;;;5029012;28;20198;-70
2023/08/13 14:27:31;;;;;;;6.40;1.90;;;;;;;;;;5028966;28;20201;-70
2023/08/13 14:29:56;;;;;;;6.75;2.17;;;;;;;;;;5023390;28;20218;-70